Terminal Aerodrome Forecast
Issued by NWS Upton, NY

Home | Current Version | Previous Version | Text Only | Print | Product List | Glossary On
Versions: 1 2 3 4 5 6 7 8 9 10 11 12 13 14 15 16 17 18 19 20 21 22 23 24 25 26 27 28 29 30 31
000
FTUS41 KOKX 281150
TAFISP
TAF
KISP 281150Z 2812/2912 16005KT P6SM SCT007 SCT070 SCT250
     FM281400 16007KT P6SM BKN020
     FM281600 16010KT P6SM SCT080 BKN200
     FM290000 14009KT P6SM SCT015 BKN100
     FM290400 12010KT P6SM SCT015 OVC030
     FM290700 11012G18KT P6SM VCSH OVC020
     FM290900 11014G20KT 3SM -SHRA OVC015=

USA.gov is the U.S. government's official web portal to all federal, state and local government web resources and services.